Time;durP1;ratioP1;P1;durP2;ratioP2;P2;SDS_P1;SDS_P2;PMS_P1;PMS_P2;Temp;Humidity;BMP_temperature;BMP_pressure;BME280_temperature;BME280_humidity;BME280_pressure;Samples;Min_cycle;Max_cycle;Signal;HPM_P1;HPM_P2
2022/06/21 00:01:26;;;;;;;1.05;0.75;;;;;;;7.99;100.00;101060.28;6088179;23;20014;-53
2022/06/21 00:03:54;;;;;;;0.55;0.55;;;;;;;7.95;100.00;101064.22;6087363;23;20040;-50
2022/06/21 00:06:23;;;;;;;2.17;1.05;;;;;;;7.84;100.00;101072.44;6087574;23;20345;-50
2022/06/21 00:08:49;;;;;;;4.10;0.93;;;;;;;7.72;100.00;101076.31;6089413;23;20014;-52
2022/06/21 00:11:32;;;;;;;1.70;1.00;;;;;;;7.62;100.00;101079.09;6087545;23;20010;-48
2022/06/21 00:13:58;;;;;;;1.42;0.75;;;;;;;7.61;100.00;101074.78;6087400;23;20081;-50
2022/06/21 00:16:26;;;;;;;1.30;0.95;;;;;;;7.56;100.00;101069.16;6088423;23;20003;-48
2022/06/21 00:18:52;;;;;;;1.90;1.27;;;;;;;7.55;100.00;101065.69;6092038;23;20034;-52
2022/06/21 00:21:21;;;;;;;1.80;1.00;;;;;;;7.58;100.00;101062.72;6090717;23;20082;-52
2022/06/21 00:23:49;;;;;;;0.88;0.75;;;;;;;7.59;100.00;101061.75;6088896;23;20114;-51
2022/06/21 00:26:16;;;;;;;3.05;0.70;;;;;;;7.60;100.00;101058.13;6090818;23;20333;-53
2022/06/21 00:28:42;;;;;;;3.50;0.93;;;;;;;7.56;100.00;101056.81;6087093;23;20105;-48
2022/06/21 00:31:21;;;;;;;3.22;0.82;;;;;;;7.53;100.00;101049.19;6090488;23;20021;-47
2022/06/21 00:33:48;;;;;;;1.55;1.15;;;;;;;7.51;100.00;101047.69;6067390;23;20439;-50
2022/06/21 00:36:25;;;;;;;1.33;1.10;;;;;;;7.47;100.00;101054.28;6091366;23;20090;-50
2022/06/21 00:38:53;;;;;;;8.00;1.25;;;;;;;7.42;100.00;101062.66;6087440;23;20329;-50
2022/06/21 00:41:25;;;;;;;1.50;0.90;;;;;;;7.33;100.00;101053.03;6092097;23;20016;-49
2022/06/21 00:43:53;;;;;;;1.13;1.00;;;;;;;7.25;100.00;101047.69;6090046;23;20006;-49
2022/06/21 00:46:32;;;;;;;1.98;0.73;;;;;;;7.10;100.00;101040.38;6091328;23;20010;-51
2022/06/21 00:48:59;;;;;;;2.42;0.90;;;;;;;7.01;100.00;101038.66;6085413;23;20464;-51
2022/06/21 00:51:57;;;;;;;3.00;1.02;;;;;;;6.94;100.00;101029.69;6091072;23;20010;-48
2022/06/21 00:54:47;;;;;;;3.33;1.35;;;;;;;6.88;100.00;101023.22;6088965;23;20476;-48
2022/06/21 00:57:19;;;;;;;1.88;1.27;;;;;;;6.89;100.00;101024.91;6091015;23;20049;-49
2022/06/21 00:59:49;;;;;;;2.88;1.75;;;;;;;6.88;100.00;101010.03;6088342;23;20061;-52
2022/06/21 01:02:23;;;;;;;1.52;0.68;;;;;;;6.87;100.00;101010.22;6088869;23;20006;-49
2022/06/21 01:04:52;;;;;;;6.38;1.95;;;;;;;6.87;100.00;101010.22;6089755;23;20014;-49
2022/06/21 01:07:19;;;;;;;1.75;0.63;;;;;;;6.89;100.00;101013.50;6091651;23;20946;-49
2022/06/21 01:09:58;;;;;;;6.78;1.30;;;;;;;6.92;100.00;101003.50;6090052;23;20034;-49
2022/06/21 01:12:41;;;;;;;2.40;1.35;;;;;;;6.91;100.00;100991.28;6090836;23;20491;-52
2022/06/21 01:15:13;;;;;;;3.28;1.67;;;;;;;6.91;100.00;100990.47;6091008;23;20033;-49
2022/06/21 01:17:39;;;;;;;3.22;0.85;;;;;;;6.89;100.00;100989.78;6089800;23;20003;-52
2022/06/21 01:20:09;;;;;;;5.45;1.30;;;;;;;6.85;100.00;100983.19;6090984;23;20115;-49
2022/06/21 01:22:49;;;;;;;2.15;0.82;;;;;;;6.81;100.00;100984.47;6092130;23;20007;-54
2022/06/21 01:25:41;;;;;;;1.75;0.90;;;;;;;6.79;100.00;100984.63;6089343;23;20010;-51
2022/06/21 01:28:08;;;;;;;1.35;1.02;;;;;;;6.77;100.00;100984.78;6090780;23;20014;-53
2022/06/21 01:30:33;;;;;;;1.50;1.23;;;;;;;6.76;100.00;100988.41;6089218;23;20010;-54
2022/06/21 01:32:59;;;;;;;2.22;1.13;;;;;;;6.76;100.00;100983.13;6088772;23;20021;-55
2022/06/21 01:35:44;;;;;;;1.30;1.10;;;;;;;6.69;100.00;100976.00;6090885;23;20002;-50
2022/06/21 01:38:15;;;;;;;4.20;2.00;;;;;;;6.64;100.00;100973.81;6087181;23;20018;-54
2022/06/21 01:40:44;;;;;;;4.85;2.03;;;;;;;6.57;100.00;100971.94;6092257;23;20054;-51
2022/06/21 01:43:17;;;;;;;5.18;1.63;;;;;;;6.53;100.00;100971.41;6090478;23;20021;-49
2022/06/21 01:45:56;;;;;;;1.08;0.90;;;;;;;6.50;100.00;100977.78;6089498;23;20041;-49
2022/06/21 01:48:24;;;;;;;3.65;1.23;;;;;;;6.42;100.00;100969.00;6088340;23;20117;-52
2022/06/21 01:50:54;;;;;;;2.42;1.08;;;;;;;6.32;100.00;100967.28;6091253;23;20097;-52
2022/06/21 01:53:23;;;;;;;1.70;0.82;;;;;;;6.27;100.00;100971.34;6089517;23;20096;-50
2022/06/21 01:55:56;;;;;;;1.90;1.17;;;;;;;6.19;100.00;100974.72;6090435;23;20344;-50
2022/06/21 01:58:26;;;;;;;6.18;1.52;;;;;;;6.10;100.00;100973.81;6090007;23;20085;-51
2022/06/21 02:01:47;;;;;;;2.92;1.20;;;;;;;6.06;100.00;100966.38;6086349;23;20010;-54
2022/06/21 02:04:20;;;;;;;1.03;0.73;;;;;;;5.98;100.00;100972.38;5984561;23;20018;-53
2022/06/21 02:06:47;;;;;;;2.35;1.05;;;;;;;5.88;100.00;100977.66;6088562;23;20316;-50
2022/06/21 02:09:23;;;;;;;3.00;1.08;;;;;;;5.84;100.00;100968.44;6090324;23;20074;-50
2022/06/21 02:11:59;;;;;;;2.70;1.38;;;;;;;5.75;100.00;100966.69;6090003;23;20011;-51
2022/06/21 02:14:28;;;;;;;4.07;1.60;;;;;;;5.66;100.00;100954.41;6090638;23;20062;-53
2022/06/21 02:17:15;;;;;;;1.63;1.02;;;;;;;5.59;100.00;100946.28;6089545;23;20018;-48
2022/06/21 02:19:48;;;;;;;1.67;1.05;;;;;;;5.55;100.00;100934.41;6057916;23;20010;-49
2022/06/21 02:22:25;;;;;;;1.60;1.48;;;;;;;5.50;100.00;100935.81;6090057;23;20332;-54
2022/06/21 02:24:52;;;;;;;6.53;1.70;;;;;;;5.43;100.00;100938.22;6087494;23;20372;-48
2022/06/21 02:27:20;;;;;;;2.97;1.30;;;;;;;5.46;100.00;100951.88;6089688;23;20065;-53
2022/06/21 02:29:51;;;;;;;3.58;1.33;;;;;;;5.54;100.00;100953.78;6089751;23;20014;-56
2022/06/21 02:32:29;;;;;;;2.42;1.45;;;;;;;5.56;100.00;100962.34;6086722;23;20017;-53
2022/06/21 02:35:00;;;;;;;2.05;1.77;;;;;;;5.61;100.00;100959.28;6089671;23;20076;-52
2022/06/21 02:37:28;;;;;;;2.60;1.23;;;;;;;5.63;100.00;100952.09;6065136;23;20040;-48
2022/06/21 02:39:54;;;;;;;5.07;2.00;;;;;;;5.59;100.00;100950.72;6088499;23;20014;-54
2022/06/21 02:42:26;;;;;;;3.42;1.75;;;;;;;5.51;100.00;100937.47;6090807;23;20348;-53
2022/06/21 02:44:56;;;;;;;2.92;0.73;;;;;;;5.38;100.00;100927.28;6087202;23;20032;-50
2022/06/21 02:47:29;;;;;;;2.80;1.58;;;;;;;5.24;100.00;100933.88;6090682;23;20010;-50
2022/06/21 02:50:06;;;;;;;0.88;0.60;;;;;;;5.16;100.00;100929.34;6089378;23;20041;-50
2022/06/21 02:52:40;;;;;;;1.35;0.63;;;;;;;5.13;100.00;100919.09;6090104;23;20010;-50
2022/06/21 02:55:51;;;;;;;1.10;1.10;;;;;;;5.12;100.00;100916.63;6089945;23;20030;-51
2022/06/21 02:58:28;;;;;;;3.55;2.08;;;;;;;5.07;100.00;100916.22;6082158;23;20021;-51
2022/06/21 03:00:55;;;;;;;5.63;1.48;;;;;;;5.03;100.00;100905.16;6089710;23;20041;-49
2022/06/21 03:03:27;;;;;;;1.40;1.30;;;;;;;4.98;100.00;100908.25;6089641;23;20030;-50
2022/06/21 03:05:57;;;;;;;2.30;0.75;;;;;;;4.94;100.00;100913.94;6088622;23;20017;-50
2022/06/21 03:08:24;;;;;;;5.57;2.05;;;;;;;4.91;100.00;100909.78;6088717;23;20041;-49
2022/06/21 03:10:51;;;;;;;1.55;1.35;;;;;;;4.89;100.00;100900.38;6091229;23;20016;-52
2022/06/21 03:13:19;;;;;;;2.35;0.77;;;;;;;4.79;100.00;100895.97;6091186;23;20089;-50
2022/06/21 03:15:48;;;;;;;2.25;0.80;;;;;;;4.67;100.00;100891.03;6091606;23;20022;-53
2022/06/21 03:18:19;;;;;;;1.10;0.75;;;;;;;4.57;100.00;100891.91;6091032;23;20060;-49
2022/06/21 03:20:46;;;;;;;3.63;2.28;;;;;;;4.54;100.00;100894.81;6091392;23;20010;-52
2022/06/21 03:23:13;;;;;;;1.75;0.77;;;;;;;4.50;100.00;100908.38;6087217;23;20037;-53
2022/06/21 03:25:39;;;;;;;0.82;0.57;;;;;;;4.51;100.00;100907.38;6091624;23;20431;-51
2022/06/21 03:28:23;;;;;;;2.33;0.80;;;;;;;4.54;100.00;100907.94;6089511;23;20038;-52
2022/06/21 03:31:01;;;;;;;2.97;1.20;;;;;;;4.57;100.00;100918.16;6086423;23;20089;-52
2022/06/21 03:33:27;;;;;;;0.57;0.50;;;;;;;4.61;100.00;100923.97;6091967;23;20017;-50
2022/06/21 03:35:52;;;;;;;3.85;0.90;;;;;;;4.61;100.00;100918.72;6091187;23;20344;-51
2022/06/21 03:38:18;;;;;;;3.78;2.80;;;;;;;4.65;100.00;100921.91;6089433;23;20006;-55
2022/06/21 03:43:41;;;;;;;3.45;1.00;;;;;;;4.58;100.00;100911.13;6091318;23;20101;-50
2022/06/21 03:46:18;;;;;;;4.22;1.38;;;;;;;4.53;100.00;100919.41;6090210;23;20021;-49
2022/06/21 03:49:10;;;;;;;1.83;1.00;;;;;;;4.55;100.00;100914.84;6088298;23;20097;-51
2022/06/21 03:51:42;;;;;;;2.40;1.25;;;;;;;4.55;100.00;100908.78;6076826;23;20552;-50
2022/06/21 03:54:19;;;;;;;3.60;1.45;;;;;;;4.55;100.00;100904.34;6089296;23;20368;-51
2022/06/21 03:56:52;;;;;;;1.83;1.50;;;;;;;4.55;100.00;100919.28;6085725;23;20332;-51
2022/06/21 03:59:28;;;;;;;1.52;0.70;;;;;;;4.54;100.00;100928.13;6089459;23;20018;-49
2022/06/21 04:01:57;;;;;;;5.45;1.27;;;;;;;4.55;100.00;100919.28;6082932;23;20017;-49
2022/06/21 04:04:34;;;;;;;1.63;0.93;;;;;;;4.56;100.00;100927.00;6088798;23;20089;-51
2022/06/21 04:07:05;;;;;;;2.20;1.23;;;;;;;4.57;100.00;100927.84;6086406;23;20018;-48
2022/06/21 04:09:38;;;;;;;6.47;1.63;;;;;;;4.59;100.00;100932.00;6090927;23;20332;-51
2022/06/21 04:12:28;;;;;;;1.50;1.38;;;;;;;4.61;100.00;100937.09;6088082;23;20018;-52
2022/06/21 04:15:19;;;;;;;2.37;1.23;;;;;;;4.57;100.00;100940.97;6086341;23;20010;-53
2022/06/21 04:17:53;;;;;;;3.58;1.48;;;;;;;4.51;100.00;100934.47;6090802;23;20014;-54
2022/06/21 04:21:03;;;;;;;1.88;1.67;;;;;;;4.44;100.00;100938.66;6086570;23;20081;-52
2022/06/21 04:23:41;;;;;;;2.25;1.08;;;;;;;4.46;100.00;100936.69;6066196;23;20124;-53
2022/06/21 04:26:12;;;;;;;4.68;2.25;;;;;;;4.44;100.00;100937.78;6088035;23;20030;-52
2022/06/21 04:28:53;;;;;;;2.90;1.88;;;;;;;4.43;100.00;100934.34;6090959;23;20010;-52
2022/06/21 04:31:31;;;;;;;7.25;3.38;;;;;;;4.45;100.00;100931.59;6090355;23;20072;-55
2022/06/21 04:34:28;;;;;;;2.53;1.27;;;;;;;4.51;100.00;100934.47;6088261;23;20312;-53
2022/06/21 04:37:01;;;;;;;3.20;1.17;;;;;;;4.55;100.00;100943.75;6086555;23;20021;-56
2022/06/21 04:39:33;;;;;;;1.65;1.13;;;;;;;4.59;100.00;100945.13;6090034;23;20010;-53
2022/06/21 04:42:05;;;;;;;1.25;0.70;;;;;;;4.64;100.00;100938.59;6090608;23;20352;-54
2022/06/21 04:44:55;;;;;;;6.38;1.48;;;;;;;4.66;100.00;100942.75;6087763;23;20010;-56
2022/06/21 04:47:41;;;;;;;1.17;1.08;;;;;;;4.70;100.00;100943.28;6089606;23;20025;-56
2022/06/21 04:50:19;;;;;;;3.47;1.05;;;;;;;4.69;100.00;100947.72;6090036;23;20273;-52
2022/06/21 04:53:10;;;;;;;1.35;0.98;;;;;;;4.66;100.00;100958.50;6090049;23;20042;-52
2022/06/21 04:55:53;;;;;;;1.58;1.00;;;;;;;4.67;100.00;100948.81;6091007;23;20057;-51
2022/06/21 04:58:19;;;;;;;0.90;0.82;;;;;;;4.69;100.00;100952.16;6088569;23;20333;-52
2022/06/21 05:00:44;;;;;;;2.28;1.63;;;;;;;4.70;100.00;100954.66;6089662;23;20021;-55
2022/06/21 05:03:34;;;;;;;2.67;1.10;;;;;;;4.77;100.00;100958.34;6087263;23;20026;-56
2022/06/21 05:06:01;;;;;;;9.02;1.23;;;;;;;4.88;100.00;100951.25;6091795;23;20404;-54
2022/06/21 05:08:26;;;;;;;3.97;1.10;;;;;;;4.96;100.00;100949.59;6089022;23;20011;-51
2022/06/21 05:10:58;;;;;;;5.07;1.48;;;;;;;5.03;100.00;100948.06;6089057;23;20006;-53
2022/06/21 05:13:30;;;;;;;2.10;1.27;;;;;;;5.16;100.00;100949.53;6089931;23;20344;-54
2022/06/21 05:15:59;;;;;;;6.85;2.20;;;;;;;5.27;100.00;100953.75;6090306;23;20439;-55
2022/06/21 05:18:33;;;;;;;3.08;1.25;;;;;;;5.39;100.00;100934.19;6090978;23;20037;-52
2022/06/21 05:21:03;;;;;;;7.93;2.25;;;;;;;5.51;100.00;100945.38;6091206;23;20018;-54
2022/06/21 05:23:29;;;;;;;3.85;1.90;;;;;;;5.67;100.00;100943.72;6088694;23;20030;-54
2022/06/21 05:25:59;;;;;;;2.30;1.65;;;;;;;5.79;100.00;100948.81;6089712;23;20015;-52
2022/06/21 05:28:34;;;;;;;2.88;2.05;;;;;;;5.80;100.00;100946.00;6087629;23;20024;-51
2022/06/21 05:31:01;;;;;;;4.22;1.42;;;;;;;5.81;100.00;100937.16;6091625;23;20006;-50
2022/06/21 05:33:35;;;;;;;12.38;3.10;;;;;;;5.86;100.00;100937.53;6088418;23;20030;-52
2022/06/21 05:36:03;;;;;;;7.22;1.83;;;;;;;5.97;100.00;100938.34;6089287;23;20064;-51
2022/06/21 05:38:31;;;;;;;1.60;1.45;;;;;;;6.17;100.00;100933.72;6092076;23;20011;-49
2022/06/21 05:41:04;;;;;;;6.78;3.08;;;;;;;6.37;100.00;100939.66;6092776;23;20010;-51
2022/06/21 05:43:42;;;;;;;4.70;2.15;;;;;;;6.48;100.00;100942.91;6091415;23;20032;-51
2022/06/21 05:46:16;;;;;;;3.13;1.58;;;;;;;6.61;100.00;100937.22;6089229;23;20348;-51
2022/06/21 05:48:43;;;;;;;3.88;1.30;;;;;;;6.71;100.00;100937.97;6089926;23;20380;-51
2022/06/21 05:51:16;;;;;;;3.72;1.77;;;;;;;6.81;100.00;100929.09;6088446;23;20013;-55
2022/06/21 05:53:53;;;;;;;4.72;2.08;;;;;;;7.04;100.00;100929.41;6089184;23;20007;-52
2022/06/21 05:56:21;;;;;;;8.25;2.35;;;;;;;7.33;100.00;100937.81;6089548;23;20389;-51
2022/06/21 05:59:07;;;;;;;5.03;2.45;;;;;;;7.61;100.00;100932.28;6090261;23;20034;-50
2022/06/21 06:01:59;;;;;;;1.30;1.13;;;;;;;7.73;100.00;100931.00;6089359;23;20006;-50
2022/06/21 06:04:31;;;;;;;;;;;;;;;7.86;100.00;100925.25;6090613;23;20011;-50
2022/06/21 06:06:57;;;;;;;;;;;;;;;8.02;100.00;100932.38;6090706;23;19944;-51
2022/06/21 06:09:31;;;;;;;3.75;1.25;;;;;;;8.08;100.00;100932.56;6087404;23;19961;-50
2022/06/21 06:12:22;;;;;;;7.13;1.30;;;;;;;8.23;100.00;100937.16;6089260;23;20015;-53
2022/06/21 06:14:57;;;;;;;;;;;;;;;8.44;100.00;100931.41;6085301;23;20006;-56
2022/06/21 06:17:50;;;;;;;4.70;2.60;;;;;;;8.66;100.00;100930.75;6084645;23;19996;-53
2022/06/21 06:20:28;;;;;;;4.55;1.98;;;;;;;8.83;100.00;100930.69;6082817;23;20224;-53
2022/06/21 06:23:12;;;;;;;5.68;2.85;;;;;;;9.08;100.00;100934.13;6087348;23;20013;-56
2022/06/21 06:25:43;;;;;;;5.60;1.55;;;;;;;9.25;100.00;100925.13;6085775;23;20025;-55
2022/06/21 06:28:14;;;;;;;3.92;1.85;;;;;;;9.46;100.00;100931.69;6086455;23;20388;-55
2022/06/21 06:30:47;;;;;;;1.67;1.13;;;;;;;9.79;100.00;100927.84;6081423;23;20026;-55
2022/06/21 06:33:16;;;;;;;3.38;1.92;;;;;;;10.11;100.00;100928.63;6085893;23;20097;-54
2022/06/21 06:35:43;;;;;;;6.25;1.23;;;;;;;10.33;100.00;100931.50;6084332;23;20022;-54
2022/06/21 06:38:13;;;;;;;10.98;2.70;;;;;;;10.56;100.00;100924.31;6083893;23;20061;-50
2022/06/21 06:40:45;;;;;;;4.50;1.90;;;;;;;10.70;100.00;100926.16;6084741;23;20089;-52
2022/06/21 06:43:24;;;;;;;2.30;1.15;;;;;;;10.93;100.00;100922.63;6084827;23;20309;-53
2022/06/21 06:45:51;;;;;;;3.70;0.98;;;;;;;11.17;100.00;100920.69;6086364;23;20010;-55
2022/06/21 06:48:23;;;;;;;5.47;1.30;;;;;;;11.37;100.00;100916.47;6088570;23;20062;-56
2022/06/21 06:50:59;;;;;;;6.50;1.75;;;;;;;11.67;100.00;100895.13;6084570;23;20014;-55
2022/06/21 06:53:46;;;;;;;3.85;1.55;;;;;;;11.76;100.00;100894.03;6083406;23;20010;-56
2022/06/21 06:56:18;;;;;;;3.78;0.90;;;;;;;11.96;100.00;100894.25;6084574;23;20018;-56
2022/06/21 06:58:43;;;;;;;1.33;0.65;;;;;;;12.28;100.00;100884.91;6079033;23;20018;-53
2022/06/21 07:01:16;;;;;;;1.98;0.95;;;;;;;12.50;100.00;100880.41;6085151;23;20021;-52
2022/06/21 07:03:47;;;;;;;4.50;0.88;;;;;;;12.65;100.00;100880.31;6088316;23;20014;-52
2022/06/21 07:06:31;;;;;;;7.13;1.75;;;;;;;12.80;100.00;100866.88;6086612;23;20146;-54
2022/06/21 07:09:21;;;;;;;7.40;1.85;;;;;;;13.08;100.00;100872.13;6089278;23;20010;-52
2022/06/21 07:14:33;;;;;;;11.80;1.67;;;;;;;13.56;100.00;100852.69;6130209;23;20338;-48
2022/06/21 07:17:15;;;;;;;2.13;0.73;;;;;;;13.78;100.00;100848.00;6145644;23;20060;-51
2022/06/21 07:19:41;;;;;;;3.08;0.90;;;;;;;14.00;100.00;100844.13;6147998;23;20033;-54
2022/06/21 07:22:18;;;;;;;3.20;0.93;;;;;;;14.14;100.00;100840.41;6148438;23;20002;-54
2022/06/21 07:25:03;;;;;;;7.20;1.77;;;;;;;14.21;100.00;100824.44;6150078;23;20017;-48
2022/06/21 07:27:31;;;;;;;8.82;1.33;;;;;;;14.25;100.00;100824.81;6147275;23;20009;-48
2022/06/21 07:30:04;;;;;;;5.80;0.93;;;;;;;14.16;100.00;100833.03;6145266;23;20005;-51
2022/06/21 07:32:35;;;;;;;1.75;0.75;;;;;;;14.11;100.00;100832.00;6147592;23;20454;-48
2022/06/21 07:35:18;;;;;;;9.25;1.35;;;;;;;14.21;100.00;100828.94;6145368;23;20052;-48
2022/06/21 07:38:09;;;;;;;3.90;1.35;;;;;;;14.31;100.00;100824.81;6147893;23;20355;-47
2022/06/21 07:40:39;;;;;;;4.35;1.65;;;;;;;14.47;100.00;100806.75;6145856;23;20005;-49
2022/06/21 07:43:11;;;;;;;5.32;0.65;;;;;;;14.54;100.00;100811.06;6148411;23;20760;-46
2022/06/21 07:45:56;;;;;;;5.40;2.00;;;;;;;14.67;100.00;100806.72;6146704;23;20426;-50
2022/06/21 07:48:39;;;;;;;6.38;0.80;;;;;;;14.87;100.00;100803.97;6149963;23;20125;-51
2022/06/21 07:51:10;;;;;;;2.17;0.98;;;;;;;15.03;100.00;100795.50;6149988;23;20019;-49
2022/06/21 07:53:59;;;;;;;1.10;0.40;;;;;;;15.26;100.00;100795.78;6148733;23;19998;-48
2022/06/21 07:56:32;;;;;;;3.85;0.80;;;;;;;15.53;100.00;100786.78;6150125;23;20009;-50
2022/06/21 07:59:12;;;;;;;8.18;1.88;;;;;;;15.68;100.00;100785.44;6147438;23;20540;-50
2022/06/21 08:07:45;;;;;;;;;;;;;;;16.20;100.00;100774.53;6151390;23;20017;-52
2022/06/21 08:10:16;;;;;;;4.20;1.02;;;;;;;16.58;100.00;100765.50;6150381;23;19912;-49
2022/06/21 08:12:41;;;;;;;4.88;0.85;;;;;;;16.92;100.00;100752.53;6149070;23;20080;-48
2022/06/21 08:15:07;;;;;;;4.45;1.25;;;;;;;17.19;100.00;100756.50;6149592;23;20014;-48
2022/06/21 08:17:40;;;;;;;3.95;1.45;;;;;;;17.41;100.00;100747.94;6150835;23;20013;-52
2022/06/21 08:20:22;;;;;;;4.80;0.88;;;;;;;17.53;100.00;100743.41;6148739;23;20434;-47
2022/06/21 08:22:55;;;;;;;3.72;1.30;;;;;;;17.51;100.00;100737.47;6150214;23;20136;-50
2022/06/21 08:25:20;;;;;;;2.20;1.30;;;;;;;17.53;100.00;100734.53;6149754;23;20036;-47
2022/06/21 08:28:01;;;;;;;6.20;0.82;;;;;;;17.57;100.00;100741.09;6148044;23;20009;-46
2022/06/21 08:30:50;;;;;;;4.53;1.52;;;;;;;17.52;100.00;100732.91;6150210;23;20017;-48
2022/06/21 08:33:23;;;;;;;3.70;0.80;;;;;;;17.62;100.00;100736.66;6146891;23;20024;-50
2022/06/21 08:36:04;;;;;;;2.75;1.13;;;;;;;17.92;100.00;100735.78;6148397;23;20014;-48
2022/06/21 08:38:56;;;;;;;2.35;1.20;;;;;;;18.17;100.00;100729.34;6149920;23;20014;-48
2022/06/21 08:41:56;;;;;;;6.18;0.90;;;;;;;18.19;100.00;100717.31;6146739;23;20512;-47
2022/06/21 08:44:49;;;;;;;4.10;1.30;;;;;;;18.31;100.00;100710.06;6150193;23;20036;-50
2022/06/21 08:47:20;;;;;;;2.97;1.63;;;;;;;18.41;100.00;100706.78;6150565;23;20006;-48
2022/06/21 08:49:45;;;;;;;8.15;1.92;;;;;;;18.39;100.00;100710.78;6149074;23;20032;-47
2022/06/21 08:52:37;;;;;;;3.08;1.13;;;;;;;18.49;100.00;100706.41;6149434;23;20430;-49
2022/06/21 08:55:15;;;;;;;2.75;0.52;;;;;;;18.78;100.00;100703.78;6173505;23;20020;-46
2022/06/21 08:57:46;;;;;;;3.13;0.60;;;;;;;18.95;100.00;100701.16;6150817;23;20005;-48
2022/06/21 09:00:20;;;;;;;;;;;;;;;19.03;100.00;100683.81;6150266;23;20024;-53
2022/06/21 09:03:08;;;;;;;4.70;1.58;;;;;;;19.50;100.00;100684.31;6147769;23;19967;-49
2022/06/21 09:06:15;;;;;;;4.95;0.85;;;;;;;19.83;100.00;100688.09;6150356;23;20017;-52
2022/06/21 09:08:56;;;;;;;1.48;0.60;;;;;;;19.91;100.00;100684.97;6029910;23;20015;-45
2022/06/21 09:11:48;;;;;;;3.07;0.90;;;;;;;19.97;100.00;100688.53;6141900;23;20445;-49
2022/06/21 09:14:47;;;;;;;3.72;0.80;;;;;;;20.21;100.00;100681.88;6149646;23;20095;-50
2022/06/21 09:17:31;;;;;;;3.47;0.85;;;;;;;20.32;100.00;100684.69;6149097;23;20072;-51
2022/06/21 09:20:22;;;;;;;3.20;0.68;;;;;;;20.53;100.00;100680.34;6149372;23;20017;-48
2022/06/21 09:23:07;;;;;;;;;;;;;;;20.62;100.00;100689.63;6149402;23;20331;-50
2022/06/21 09:25:52;;;;;;;4.05;1.17;;;;;;;20.77;100.00;100680.91;6150482;23;19912;-48
2022/06/21 09:29:04;;;;;;;5.15;0.95;;;;;;;20.69;100.00;100676.78;6148000;23;20024;-50
2022/06/21 09:31:38;;;;;;;3.63;0.55;;;;;;;20.42;100.00;100676.72;6137051;23;20047;-52
2022/06/21 09:34:17;;;;;;;3.15;0.50;;;;;;;20.75;100.00;100674.94;6149179;23;20017;-51
2022/06/21 09:37:01;;;;;;;4.68;0.65;;;;;;;21.11;100.00;100671.50;6148229;23;20089;-50
2022/06/21 09:39:37;;;;;;;3.50;0.77;;;;;;;21.18;100.00;100667.81;6148771;23;20041;-48
2022/06/21 09:42:25;;;;;;;6.70;1.15;;;;;;;21.00;100.00;100669.81;6149415;23;20013;-48
2022/06/21 09:45:14;;;;;;;4.45;0.30;;;;;;;21.20;100.00;100669.19;6148904;23;20343;-48
2022/06/21 09:48:02;;;;;;;1.92;0.55;;;;;;;21.33;100.00;100670.63;6148107;23;20060;-48
2022/06/21 09:50:40;;;;;;;2.58;0.38;;;;;;;21.18;100.00;100660.53;6149542;23;20020;-47
2022/06/21 09:53:23;;;;;;;4.03;1.30;;;;;;;21.24;100.00;100662.19;6147578;23;20045;-47
2022/06/21 09:56:07;;;;;;;2.78;0.73;;;;;;;21.69;100.00;100676.31;6151169;23;20386;-50
2022/06/21 09:58:55;;;;;;;5.68;0.40;;;;;;;21.71;100.00;100671.44;6148868;23;20367;-50
2022/06/21 10:01:25;;;;;;;1.92;0.80;;;;;;;21.22;100.00;100664.34;6149780;23;20017;-49
2022/06/21 10:04:21;;;;;;;2.72;0.70;;;;;;;20.98;97.46;100666.56;6149446;23;20021;-47
2022/06/21 10:07:09;;;;;;;3.92;1.65;;;;;;;21.37;100.00;100666.34;6146562;23;20039;-49
2022/06/21 10:10:12;;;;;;;8.23;0.93;;;;;;;21.84;98.84;100662.91;6150346;23;20020;-49
2022/06/21 10:12:43;;;;;;;4.65;1.30;;;;;;;21.63;100.00;100661.16;6124318;23;20017;-49
2022/06/21 10:15:29;;;;;;;1.95;0.50;;;;;;;21.67;98.35;100662.28;6147615;23;20017;-53
2022/06/21 10:18:07;;;;;;;3.35;0.60;;;;;;;22.00;90.28;100667.31;6148158;23;20017;-49
2022/06/21 10:21:11;;;;;;;2.92;1.23;;;;;;;21.93;92.70;100672.13;6150029;23;20490;-52
2022/06/21 10:24:05;;;;;;;2.78;1.38;;;;;;;21.96;94.57;100668.09;6090812;23;20367;-52
2022/06/21 10:27:00;;;;;;;3.78;0.32;;;;;;;22.26;94.61;100670.16;6146556;23;20080;-53
2022/06/21 10:29:41;;;;;;;4.88;0.55;;;;;;;22.24;88.80;100664.22;6148317;23;20013;-49
2022/06/21 10:32:27;;;;;;;4.45;1.65;;;;;;;21.97;91.33;100667.84;6148613;23;20009;-53
2022/06/21 10:35:23;;;;;;;0.57;0.45;;;;;;;22.22;85.92;100666.34;6172378;23;20419;-47
2022/06/21 10:37:51;;;;;;;1.23;0.60;;;;;;;22.64;87.72;100666.22;6147273;23;20080;-55
2022/06/21 10:40:53;;;;;;;4.40;1.23;;;;;;;22.70;81.51;100667.06;6148394;23;20022;-48
2022/06/21 10:43:48;;;;;;;2.63;1.30;;;;;;;22.72;86.00;100664.91;6148882;23;20480;-48
2022/06/21 10:46:42;;;;;;;4.88;0.70;;;;;;;22.71;81.95;100657.84;6149418;23;20072;-48
2022/06/21 10:49:30;;;;;;;0.85;0.50;;;;;;;22.36;78.15;100658.59;6149662;23;20384;-52
2022/06/21 10:52:05;;;;;;;5.45;1.45;;;;;;;22.37;83.95;100652.91;6170734;23;20338;-49
2022/06/21 10:54:46;;;;;;;2.90;0.30;;;;;;;22.62;70.81;100654.88;6148939;23;20441;-48
2022/06/21 10:57:49;;;;;;;1.60;0.50;;;;;;;22.27;78.78;100652.06;6147339;23;20020;-49
2022/06/21 11:03:34;;;;;;;6.00;0.70;;;;;;;22.89;81.79;100640.31;6147577;23;20099;-59
2022/06/21 11:06:21;;;;;;;3.90;0.75;;;;;;;23.12;78.59;100639.00;6149645;23;20062;-52
2022/06/21 11:08:58;;;;;;;1.13;0.55;;;;;;;23.18;80.93;100643.34;6147602;23;20006;-47
2022/06/21 11:15:03;;;;;;;1.23;0.30;;;;;;;22.83;71.32;100639.50;6128319;23;20432;-48
2022/06/21 11:17:58;;;;;;;4.65;0.60;;;;;;;22.72;78.25;100637.03;6147049;23;20295;-46
2022/06/21 11:21:06;;;;;;;2.10;1.05;;;;;;;22.56;69.25;100641.59;6149039;23;20005;-45
2022/06/21 11:23:44;;;;;;;3.13;0.52;;;;;;;22.45;77.79;100635.38;6148937;23;20074;-49
2022/06/21 11:26:21;;;;;;;2.20;0.95;;;;;;;22.53;72.13;100634.03;6148371;23;20312;-46
2022/06/21 11:29:24;;;;;;;3.05;0.85;;;;;;;22.62;73.60;100625.16;6148515;23;20012;-46
2022/06/21 11:32:01;;;;;;;2.50;0.43;;;;;;;22.68;73.41;100623.25;6147687;23;20018;-49
2022/06/21 11:35:01;;;;;;;4.45;0.73;;;;;;;22.55;70.32;100631.88;6150628;23;20009;-46
2022/06/21 11:37:36;;;;;;;2.30;0.45;;;;;;;22.62;73.46;100627.03;6151464;23;20013;-48
2022/06/21 11:40:24;;;;;;;3.28;0.45;;;;;;;23.15;73.17;100638.44;6149630;23;20363;-50
2022/06/21 11:42:56;;;;;;;1.17;0.60;;;;;;;23.54;76.17;100629.75;6149498;23;20005;-46
2022/06/21 11:45:36;;;;;;;4.85;1.10;;;;;;;23.99;74.42;100625.31;6150388;23;20053;-52
2022/06/21 11:48:21;;;;;;;3.03;0.63;;;;;;;24.14;69.29;100619.84;6149595;23;20068;-48
2022/06/21 11:50:59;;;;;;;0.88;0.47;;;;;;;23.96;68.05;100631.31;6150631;23;20009;-47
2022/06/21 11:54:01;;;;;;;3.90;0.70;;;;;;;23.95;71.83;100625.06;6149568;23;20100;-47
2022/06/21 11:56:49;;;;;;;3.42;0.73;;;;;;;24.41;72.17;100626.75;6149891;23;20028;-46
2022/06/21 11:59:37;;;;;;;5.57;0.45;;;;;;;24.64;68.77;100619.84;6149908;23;20490;-46
2022/06/21 12:02:36;;;;;;;3.03;0.35;;;;;;;24.23;70.84;100616.56;6149921;23;20005;-47
2022/06/21 12:05:02;;;;;;;2.47;0.60;;;;;;;24.47;68.35;100622.13;6150775;23;20014;-49
2022/06/21 12:07:56;;;;;;;3.92;0.80;;;;;;;24.32;68.30;100617.59;6149776;23;20023;-52
2022/06/21 12:10:28;;;;;;;4.50;0.50;;;;;;;24.29;67.93;100616.25;6148736;23;20011;-51
2022/06/21 12:13:43;;;;;;;2.80;0.80;;;;;;;24.03;62.12;100629.09;6150885;23;20005;-48
2022/06/21 12:16:27;;;;;;;2.28;0.70;;;;;;;24.14;67.66;100617.13;6149620;23;20009;-49
2022/06/21 12:19:00;;;;;;;3.05;0.30;;;;;;;24.47;67.21;100619.41;6147788;23;20001;-48
2022/06/21 12:21:30;;;;;;;4.10;0.73;;;;;;;24.86;64.25;100616.72;6149508;23;20009;-48
2022/06/21 12:24:00;;;;;;;2.67;0.70;;;;;;;25.11;62.33;100612.16;6148902;23;20017;-50
2022/06/21 12:26:29;;;;;;;5.03;0.90;;;;;;;25.22;61.06;100600.16;6149797;23;20044;-47
2022/06/21 12:28:57;;;;;;;1.67;0.60;;;;;;;25.28;55.76;100601.75;6149655;23;20048;-54
2022/06/21 12:31:44;;;;;;;2.25;0.20;;;;;;;25.57;51.53;100601.69;6150165;23;20490;-52